Time;durP1;ratioP1;P1;durP2;ratioP2;P2;SDS_P1;SDS_P2;PMS_P1;PMS_P2;Temp;Humidity;BMP_temperature;BMP_pressure;BME280_temperature;BME280_humidity;BME280_pressure;Samples;Min_cycle;Max_cycle;Signal;HPM_P1;HPM_P2
2022/07/22 00:02:19;;;;;;;12.93;8.95;;;17.20;92.80;;;;;;5035918;28;20176;-86
2022/07/22 00:04:45;;;;;;;12.93;8.55;;;17.20;92.70;;;;;;5035336;28;20196;-86
2022/07/22 00:07:10;;;;;;;13.15;8.05;;;17.20;92.80;;;;;;5035424;28;20180;-87
2022/07/22 00:09:36;;;;;;;20.92;7.63;;;17.20;92.60;;;;;;5036802;28;20596;-87
2022/07/22 00:12:01;;;;;;;12.75;7.55;;;17.20;92.60;;;;;;5036309;28;20177;-87
2022/07/22 00:14:27;;;;;;;15.70;7.28;;;17.20;92.40;;;;;;5036376;28;20291;-86
2022/07/22 00:16:53;;;;;;;12.20;7.32;;;17.10;92.10;;;;;;5035628;28;20172;-87
2022/07/22 00:19:18;;;;;;;13.10;7.80;;;17.00;92.20;;;;;;5035598;28;20255;-88
2022/07/22 00:21:44;;;;;;;12.52;7.32;;;16.90;92.10;;;;;;5035333;28;20635;-88
2022/07/22 00:24:09;;;;;;;12.32;8.23;;;17.00;92.10;;;;;;5036175;28;20572;-87
2022/07/22 00:26:35;;;;;;;10.05;7.47;;;17.00;92.10;;;;;;5035107;28;20651;-87
2022/07/22 00:29:00;;;;;;;15.10;9.07;;;17.00;92.00;;;;;;5035046;28;20177;-87
2022/07/22 00:31:26;;;;;;;16.25;10.50;;;17.00;92.00;;;;;;5034789;28;20323;-88
2022/07/22 00:33:52;;;;;;;16.40;11.85;;;16.90;91.80;;;;;;5034571;28;20204;-88
2022/07/22 00:36:17;;;;;;;15.40;11.32;;;16.90;91.90;;;;;;5035913;28;20180;-86
2022/07/22 00:38:43;;;;;;;14.65;11.27;;;16.90;91.90;;;;;;5034989;28;20204;-88
2022/07/22 00:41:08;;;;;;;23.55;11.57;;;16.90;91.60;;;;;;5035612;28;20254;-88
2022/07/22 00:43:51;;;;;;;22.55;11.45;;;16.90;91.60;;;;;;5034708;28;20258;-87
2022/07/22 00:46:19;;;;;;;17.20;10.70;;;16.80;91.60;;;;;;5035139;28;20177;-88
2022/07/22 00:48:45;;;;;;;17.00;9.77;;;16.80;91.60;;;;;;5035731;28;20251;-88
2022/07/22 00:51:11;;;;;;;19.65;9.73;;;16.80;91.70;;;;;;5034372;28;20254;-88
2022/07/22 00:53:37;;;;;;;20.20;8.52;;;16.80;91.60;;;;;;5034291;28;20647;-88
2022/07/22 00:56:04;;;;;;;21.38;8.73;;;16.80;91.60;;;;;;5034209;28;20208;-88
2022/07/22 00:58:29;;;;;;;19.98;7.60;;;16.80;91.70;;;;;;5034214;28;20192;-88
2022/07/22 01:00:55;;;;;;;30.20;7.53;;;16.70;91.60;;;;;;5035334;28;20635;-87
2022/07/22 01:03:21;;;;;;;12.88;6.30;;;16.60;91.70;;;;;;5034164;28;20661;-88
2022/07/22 01:05:46;;;;;;;19.52;6.28;;;16.50;91.60;;;;;;5033829;28;20291;-88
2022/07/22 01:08:12;;;;;;;19.20;5.78;;;16.50;91.80;;;;;;5034038;28;20282;-88
2022/07/22 01:10:37;;;;;;;21.80;5.70;;;16.60;91.90;;;;;;5034003;28;20647;-88
2022/07/22 01:13:03;;;;;;;18.33;4.72;;;16.60;91.80;;;;;;5033991;28;20287;-88
2022/07/22 01:15:28;;;;;;;20.23;5.03;;;16.50;91.60;;;;;;5034003;28;20204;-88
2022/07/22 01:17:54;;;;;;;21.17;5.10;;;16.50;91.60;;;;;;5034970;28;20230;-88
2022/07/22 01:20:19;;;;;;;18.70;5.47;;;16.50;91.50;;;;;;5035022;28;20638;-88
2022/07/22 01:22:45;;;;;;;17.10;4.72;;;16.40;91.50;;;;;;5033901;28;20176;-88
2022/07/22 01:25:11;;;;;;;21.33;4.55;;;16.40;91.50;;;;;;5034970;28;20658;-88
2022/07/22 01:27:37;;;;;;;11.32;3.92;;;16.40;91.50;;;;;;5033839;28;20184;-88
2022/07/22 01:30:06;;;;;;;15.75;4.05;;;16.40;91.30;;;;;;5033786;28;20177;-88
2022/07/22 01:32:32;;;;;;;13.98;4.28;;;16.50;91.30;;;;;;5034762;28;20231;-88
2022/07/22 01:34:57;;;;;;;16.42;3.95;;;16.50;91.20;;;;;;5033638;28;20717;-88
2022/07/22 01:37:25;;;;;;;9.18;3.70;;;16.50;91.20;;;;;;5033692;28;20635;-88
2022/07/22 01:39:51;;;;;;;9.80;3.70;;;16.50;91.20;;;;;;5034798;28;20252;-88
2022/07/22 01:42:17;;;;;;;10.68;3.50;;;16.50;91.00;;;;;;5033477;28;20215;-88
2022/07/22 01:44:42;;;;;;;13.13;4.10;;;16.50;91.00;;;;;;5034312;28;20581;-88
2022/07/22 01:47:08;;;;;;;14.10;4.10;;;16.50;91.00;;;;;;5034513;28;20184;-88
2022/07/22 01:49:34;;;;;;;12.75;3.90;;;16.50;90.90;;;;;;5034699;28;20264;-88
2022/07/22 01:52:01;;;;;;;15.80;4.05;;;16.50;90.90;;;;;;5033435;28;20215;-88
2022/07/22 01:54:27;;;;;;;10.95;3.30;;;16.40;90.90;;;;;;5034198;28;20678;-88
2022/07/22 01:56:52;;;;;;;19.67;4.43;;;16.40;90.90;;;;;;5034648;28;20306;-88
2022/07/22 01:59:18;;;;;;;13.38;3.15;;;16.30;91.00;;;;;;5033346;28;20226;-88
2022/07/22 02:01:43;;;;;;;17.13;3.33;;;16.40;91.00;;;;;;5033098;28;20208;-88
2022/07/22 02:04:09;;;;;;;21.35;4.20;;;16.30;91.10;;;;;;5033287;28;20203;-88
2022/07/22 02:06:35;;;;;;;13.68;4.10;;;16.30;91.30;;;;;;5032934;28;20195;-88
2022/07/22 02:09:00;;;;;;;20.58;4.30;;;16.10;91.40;;;;;;5033110;28;20299;-87
2022/07/22 02:11:26;;;;;;;11.45;3.70;;;16.00;91.60;;;;;;5032971;28;20524;-89
2022/07/22 02:13:51;;;;;;;15.75;4.25;;;15.90;91.90;;;;;;5032786;28;20228;-89
2022/07/22 02:16:17;;;;;;;9.45;4.40;;;15.90;92.10;;;;;;5032590;28;20234;-89
2022/07/22 02:18:43;;;;;;;19.02;4.65;;;15.90;92.20;;;;;;5032715;28;20223;-89
2022/07/22 02:21:08;;;;;;;17.85;4.68;;;15.80;92.30;;;;;;5032648;28;20191;-88
2022/07/22 02:23:34;;;;;;;19.25;4.05;;;15.90;92.40;;;;;;5033893;28;20639;-89
2022/07/22 02:25:59;;;;;;;13.30;4.60;;;15.80;92.50;;;;;;5032741;28;20177;-88
2022/07/22 02:28:25;;;;;;;18.40;3.80;;;15.80;92.50;;;;;;5032437;28;20181;-89
2022/07/22 02:30:51;;;;;;;13.98;3.67;;;15.80;92.60;;;;;;5032487;28;20288;-89
2022/07/22 02:33:16;;;;;;;13.68;4.40;;;15.80;92.60;;;;;;5033636;28;20217;-88
2022/07/22 02:35:42;;;;;;;11.80;3.97;;;15.80;92.50;;;;;;5032550;28;20220;-89
2022/07/22 02:38:07;;;;;;;10.60;3.80;;;15.70;92.60;;;;;;5032481;28;20181;-89
2022/07/22 02:40:33;;;;;;;22.15;3.92;;;15.80;92.80;;;;;;5032384;28;20266;-89
2022/07/22 02:43:00;;;;;;;8.15;3.30;;;15.80;92.80;;;;;;5032449;28;20318;-88
2022/07/22 02:45:25;;;;;;;18.02;3.88;;;15.70;92.70;;;;;;5032211;28;20215;-89
2022/07/22 02:47:53;;;;;;;15.15;3.60;;;15.70;92.70;;;;;;5033431;28;20177;-88
2022/07/22 02:50:19;;;;;;;15.88;3.65;;;15.80;92.90;;;;;;5032387;28;20181;-89
2022/07/22 02:52:45;;;;;;;13.45;3.30;;;15.80;92.80;;;;;;5033609;28;20541;-89
2022/07/22 02:55:11;;;;;;;13.98;3.40;;;15.80;92.90;;;;;;5033411;28;20204;-88
2022/07/22 02:57:36;;;;;;;17.25;3.90;;;15.80;92.90;;;;;;5033498;28;20199;-88
2022/07/22 03:00:04;;;;;;;11.18;3.72;;;15.80;92.90;;;;;;5032361;28;20614;-89
2022/07/22 03:02:29;;;;;;;15.00;3.70;;;15.80;93.00;;;;;;5033467;28;20197;-89
2022/07/22 03:04:55;;;;;;;15.63;4.73;;;15.80;93.00;;;;;;5033318;28;20235;-89
2022/07/22 03:07:21;;;;;;;18.65;4.10;;;15.80;93.10;;;;;;5032435;28;20180;-88
2022/07/22 03:09:46;;;;;;;10.80;3.70;;;15.80;93.10;;;;;;5032140;28;20681;-89
2022/07/22 03:12:12;;;;;;;16.60;4.32;;;15.80;93.30;;;;;;5033637;28;20639;-89
2022/07/22 03:14:37;;;;;;;27.38;4.65;;;15.80;93.40;;;;;;5031910;28;20204;-89
2022/07/22 03:17:03;;;;;;;14.50;4.15;;;15.70;93.60;;;;;;5032196;28;20175;-89
2022/07/22 03:19:28;;;;;;;15.50;3.67;;;15.70;93.70;;;;;;5032036;28;20243;-89
2022/07/22 03:21:54;;;;;;;12.95;3.72;;;15.70;93.80;;;;;;5032079;28;20193;-89
2022/07/22 03:24:19;;;;;;;16.30;3.92;;;15.70;93.80;;;;;;5033207;28;20255;-89
2022/07/22 03:26:45;;;;;;;13.30;3.70;;;15.80;93.90;;;;;;5032115;28;20550;-89
2022/07/22 03:29:10;;;;;;;10.60;4.10;;;15.70;93.90;;;;;;5036110;28;20662;-89
2022/07/22 03:31:36;;;;;;;15.75;4.53;;;15.70;94.00;;;;;;5036155;28;20189;-89
2022/07/22 03:34:01;;;;;;;21.17;4.45;;;15.70;94.00;;;;;;5035794;28;20200;-90
2022/07/22 03:36:29;;;;;;;20.20;4.10;;;15.70;94.00;;;;;;5037411;28;20177;-90
2022/07/22 03:38:55;;;;;;;12.27;4.47;;;15.70;94.10;;;;;;5035981;28;20227;-89
2022/07/22 03:41:20;;;;;;;18.63;4.35;;;15.70;94.10;;;;;;5035898;28;20173;-90
2022/07/22 03:43:47;;;;;;;29.02;4.88;;;15.70;94.10;;;;;;5035919;28;20184;-89
2022/07/22 03:46:12;;;;;;;23.00;4.32;;;15.70;94.20;;;;;;5036226;28;20639;-90
2022/07/22 03:48:38;;;;;;;15.02;4.53;;;15.70;94.20;;;;;;5036085;28;20191;-89
2022/07/22 03:51:04;;;;;;;19.35;4.18;;;15.70;94.20;;;;;;5036942;28;20208;-90
2022/07/22 03:53:29;;;;;;;10.05;4.10;;;15.60;94.20;;;;;;5035889;28;20243;-90
2022/07/22 03:55:55;;;;;;;14.93;4.90;;;15.70;94.30;;;;;;5037076;28;20287;-89
2022/07/22 03:58:21;;;;;;;20.92;5.93;;;15.60;94.30;;;;;;5035349;28;20181;-89
2022/07/22 04:00:46;;;;;;;14.82;5.63;;;15.60;94.30;;;;;;5035379;28;20644;-89
2022/07/22 04:03:12;;;;;;;17.70;5.20;;;15.60;94.40;;;;;;5035321;28;20176;-89
2022/07/22 04:05:37;;;;;;;15.87;6.37;;;15.50;94.40;;;;;;5035373;28;20204;-89
2022/07/22 04:08:03;;;;;;;17.57;6.17;;;15.50;94.50;;;;;;5036575;28;20177;-89
2022/07/22 04:10:29;;;;;;;12.77;5.43;;;15.50;94.60;;;;;;5035140;28;20650;-89
2022/07/22 04:12:54;;;;;;;20.37;5.67;;;15.50;94.60;;;;;;5035216;28;20650;-89
2022/07/22 04:15:20;;;;;;;18.60;5.23;;;15.50;94.60;;;;;;5035272;28;20251;-89
2022/07/22 04:17:45;;;;;;;20.00;5.18;;;15.50;94.50;;;;;;5034954;28;20556;-90
2022/07/22 04:20:11;;;;;;;19.07;5.83;;;15.40;94.50;;;;;;5034860;28;20181;-90
2022/07/22 04:22:37;;;;;;;21.00;5.70;;;15.40;94.50;;;;;;5035068;28;20264;-90
2022/07/22 04:25:03;;;;;;;19.13;5.67;;;15.50;94.50;;;;;;5034976;28;20295;-89
2022/07/22 04:27:28;;;;;;;15.70;5.23;;;15.50;94.50;;;;;;5036534;28;20635;-89
2022/07/22 04:29:54;;;;;;;22.90;6.20;;;15.50;94.40;;;;;;5034812;28;20207;-89
2022/07/22 04:32:19;;;;;;;17.10;5.47;;;15.50;94.40;;;;;;5034775;28;20363;-90
2022/07/22 04:34:45;;;;;;;16.13;5.73;;;15.50;94.40;;;;;;5035005;28;20204;-89
2022/07/22 04:37:10;;;;;;;17.30;5.43;;;15.40;94.30;;;;;;5035057;28;20172;-89
2022/07/22 04:39:36;;;;;;;18.63;5.17;;;15.40;94.40;;;;;;5034018;28;20181;-89
2022/07/22 04:42:01;;;;;;;16.63;6.57;;;15.40;94.30;;;;;;5034766;28;20177;-89
2022/07/22 04:44:27;;;;;;;16.33;5.75;;;15.30;94.30;;;;;;5034585;28;20310;-90
2022/07/22 04:46:52;;;;;;;16.83;5.80;;;15.40;94.40;;;;;;5035155;28;20647;-90
2022/07/22 04:49:18;;;;;;;20.10;6.67;;;15.30;94.40;;;;;;5034553;28;20654;-89
2022/07/22 04:51:44;;;;;;;21.07;5.90;;;15.30;94.40;;;;;;5035014;28;20531;-89
2022/07/22 04:54:09;;;;;;;18.53;6.27;;;15.30;94.40;;;;;;5034358;28;20212;-89
2022/07/22 04:56:35;;;;;;;23.27;6.83;;;15.30;94.30;;;;;;5034373;28;20187;-89
2022/07/22 04:59:00;;;;;;;14.83;5.60;;;15.30;94.30;;;;;;5034402;28;20208;-90
2022/07/22 05:01:26;;;;;;;22.90;6.13;;;15.40;94.30;;;;;;5034709;28;20589;-90
2022/07/22 05:03:52;;;;;;;21.03;5.37;;;15.40;94.20;;;;;;5035559;28;20208;-90
2022/07/22 05:06:18;;;;;;;19.93;5.50;;;15.40;94.10;;;;;;5034243;28;20176;-90
2022/07/22 05:08:43;;;;;;;19.57;5.30;;;15.50;94.10;;;;;;5034641;28;20173;-89
2022/07/22 05:11:09;;;;;;;20.60;5.97;;;15.50;94.00;;;;;;5035950;28;20543;-90
2022/07/22 05:13:35;;;;;;;19.50;5.23;;;15.40;93.80;;;;;;5034551;28;20185;-90
2022/07/22 05:16:05;;;;;;;14.90;5.43;;;15.50;93.70;;;;;;5034052;28;20205;-89
2022/07/22 05:18:30;;;;;;;21.42;5.70;;;15.50;93.70;;;;;;5034015;28;20177;-90
2022/07/22 05:20:56;;;;;;;17.37;5.07;;;15.60;93.70;;;;;;5034218;28;20557;-90
2022/07/22 05:23:21;;;;;;;18.98;5.97;;;15.70;93.70;;;;;;5034021;28;20276;-90
2022/07/22 05:25:47;;;;;;;21.13;5.75;;;15.70;93.60;;;;;;5033836;28;20208;-91
2022/07/22 05:28:13;;;;;;;25.65;6.28;;;15.60;93.60;;;;;;5034640;28;20596;-90
2022/07/22 05:30:38;;;;;;;21.33;5.88;;;15.60;93.60;;;;;;5034248;28;20192;-90
2022/07/22 05:33:04;;;;;;;14.77;5.55;;;15.70;93.70;;;;;;5035662;28;20173;-89
2022/07/22 05:35:30;;;;;;;25.17;6.70;;;15.60;93.70;;;;;;5034195;28;20211;-90
2022/07/22 05:37:56;;;;;;;21.83;6.28;;;15.50;93.80;;;;;;5034244;28;20184;-90
2022/07/22 05:40:21;;;;;;;17.77;6.40;;;15.60;93.80;;;;;;5035190;28;20222;-90
2022/07/22 05:42:47;;;;;;;18.57;6.43;;;15.60;93.80;;;;;;5034179;28;20173;-90
2022/07/22 05:45:13;;;;;;;19.85;6.72;;;15.60;93.80;;;;;;5034018;28;20303;-90
2022/07/22 05:47:38;;;;;;;18.37;6.33;;;15.70;93.80;;;;;;5035264;28;20173;-90
2022/07/22 05:50:04;;;;;;;29.25;6.85;;;15.60;93.80;;;;;;5033573;28;20175;-90
2022/07/22 05:52:30;;;;;;;15.88;6.00;;;15.70;93.90;;;;;;5033250;28;20602;-90
2022/07/22 05:54:55;;;;;;;24.03;7.10;;;15.70;93.80;;;;;;5033776;28;20293;-90
2022/07/22 05:57:21;;;;;;;30.35;6.55;;;15.70;93.90;;;;;;5035245;28;20635;-90
2022/07/22 05:59:46;;;;;;;24.05;6.97;;;15.80;93.90;;;;;;5035204;28;20667;-90
2022/07/22 06:02:12;;;;;;;28.30;6.45;;;15.90;94.00;;;;;;5033790;28;20177;-90
2022/07/22 06:04:37;;;;;;;23.38;6.60;;;15.80;93.80;;;;;;5033837;28;20258;-89
2022/07/22 06:07:06;;;;;;;25.33;6.95;;;15.90;93.70;;;;;;5034648;28;20650;-90
2022/07/22 06:09:31;;;;;;;22.58;5.80;;;16.00;93.70;;;;;;5033751;28;20180;-89
2022/07/22 06:11:57;;;;;;;21.98;6.78;;;16.00;93.20;;;;;;5034748;28;20199;-90
2022/07/22 06:14:23;;;;;;;17.83;5.30;;;16.00;93.20;;;;;;5033243;28;20212;-89
2022/07/22 06:16:48;;;;;;;25.00;6.45;;;16.00;93.20;;;;;;5033332;28;20176;-90
2022/07/22 06:19:15;;;;;;;20.60;5.80;;;15.90;92.90;;;;;;5034530;28;20208;-89
2022/07/22 06:21:40;;;;;;;16.08;5.15;;;16.00;92.90;;;;;;5033239;28;20173;-89
2022/07/22 06:24:06;;;;;;;20.02;5.40;;;15.90;92.60;;;;;;5033458;28;20288;-89
2022/07/22 06:26:32;;;;;;;26.27;6.10;;;15.90;92.30;;;;;;5034669;28;20177;-89
2022/07/22 06:28:58;;;;;;;23.88;6.03;;;15.90;92.30;;;;;;5033278;28;20181;-89
2022/07/22 06:31:23;;;;;;;16.55;5.40;;;15.90;92.30;;;;;;5034342;28;20216;-88
2022/07/22 06:33:49;;;;;;;26.67;5.68;;;15.90;92.10;;;;;;5033118;28;20200;-88
2022/07/22 06:36:14;;;;;;;19.35;5.13;;;16.00;92.00;;;;;;5032744;28;20319;-91
2022/07/22 06:38:40;;;;;;;22.60;6.72;;;16.00;92.00;;;;;;5032862;28;20173;-90
2022/07/22 06:41:06;;;;;;;19.75;5.20;;;16.00;91.80;;;;;;5032482;28;20176;-89
2022/07/22 06:43:31;;;;;;;25.13;5.90;;;16.10;91.90;;;;;;5032847;28;20207;-89
2022/07/22 06:45:57;;;;;;;21.75;5.78;;;16.10;91.80;;;;;;5033455;28;20594;-88
2022/07/22 06:48:23;;;;;;;25.08;6.53;;;16.20;91.80;;;;;;5036356;28;20181;-88
2022/07/22 06:50:48;;;;;;;19.70;5.13;;;16.20;91.70;;;;;;5035692;28;20191;-88
2022/07/22 06:53:14;;;;;;;20.13;5.95;;;16.30;91.70;;;;;;5035970;28;20665;-89
2022/07/22 06:55:39;;;;;;;16.63;4.95;;;16.30;91.40;;;;;;5037774;28;20295;-88
2022/07/22 06:58:05;;;;;;;26.45;6.20;;;16.30;90.70;;;;;;5036289;28;20181;-90
2022/07/22 07:00:31;;;;;;;13.88;5.13;;;16.40;91.10;;;;;;5037348;28;20601;-88
2022/07/22 07:03:00;;;;;;;16.83;4.80;;;16.50;90.80;;;;;;5037690;28;20199;-88
2022/07/22 07:05:27;;;;;;;20.27;5.07;;;16.60;90.90;;;;;;5036848;28;20199;-88
2022/07/22 07:07:53;;;;;;;20.17;4.90;;;16.70;90.70;;;;;;5039995;28;20180;-88
2022/07/22 07:10:18;;;;;;;19.45;5.07;;;16.70;90.40;;;;;;5035858;28;20180;-88
2022/07/22 07:12:44;;;;;;;16.52;4.38;;;16.60;90.10;;;;;;5033893;28;20177;-89
2022/07/22 07:15:11;;;;;;;20.25;5.47;;;16.40;89.60;;;;;;5032175;28;20205;-89
2022/07/22 07:17:37;;;;;;;18.80;5.22;;;16.50;90.00;;;;;;5032293;28;20180;-90
2022/07/22 07:20:03;;;;;;;24.35;6.75;;;16.50;90.10;;;;;;5032652;28;20177;-88
2022/07/22 07:22:29;;;;;;;25.42;5.97;;;16.60;90.10;;;;;;5032837;28;20567;-89
2022/07/22 07:24:54;;;;;;;17.80;4.82;;;16.70;90.00;;;;;;5032494;28;20196;-89
2022/07/22 07:27:20;;;;;;;20.45;4.75;;;16.80;89.80;;;;;;5032525;28;20189;-88
2022/07/22 07:29:45;;;;;;;16.77;4.22;;;16.80;89.70;;;;;;5032049;28;20187;-88
2022/07/22 07:32:11;;;;;;;16.90;4.35;;;16.70;87.50;;;;;;5032054;28;20528;-88
2022/07/22 07:34:37;;;;;;;21.23;3.67;;;16.80;87.20;;;;;;5033203;28;20232;-87
2022/07/22 07:37:02;;;;;;;18.42;4.10;;;17.00;87.60;;;;;;5033048;28;20268;-86
2022/07/22 07:39:28;;;;;;;17.42;3.50;;;16.80;84.90;;;;;;5035522;28;20204;-87
2022/07/22 07:41:54;;;;;;;14.25;3.90;;;17.00;86.40;;;;;;5034841;28;20177;-87
2022/07/22 07:44:19;;;;;;;12.90;3.20;;;17.10;87.00;;;;;;5032772;28;20208;-87
2022/07/22 07:46:45;;;;;;;21.13;3.30;;;17.10;86.60;;;;;;5034148;28;20675;-87
2022/07/22 07:49:10;;;;;;;18.60;4.60;;;17.20;86.60;;;;;;5034399;28;20176;-87
2022/07/22 07:51:36;;;;;;;12.48;2.92;;;17.20;86.40;;;;;;5035791;28;20180;-86
2022/07/22 07:54:02;;;;;;;14.00;3.10;;;17.00;84.70;;;;;;5033950;28;20291;-87
2022/07/22 07:56:28;;;;;;;17.63;3.58;;;16.90;84.40;;;;;;5034666;28;20295;-87
2022/07/22 07:58:53;;;;;;;11.48;2.85;;;17.00;85.00;;;;;;5034018;28;20254;-87
2022/07/22 08:01:19;;;;;;;13.35;3.75;;;16.90;84.60;;;;;;5036167;28;20176;-88
2022/07/22 08:03:44;;;;;;;12.38;3.20;;;16.90;85.30;;;;;;5037358;28;20594;-87
2022/07/22 08:06:10;;;;;;;13.07;3.30;;;16.90;85.10;;;;;;5034258;28;20169;-89
2022/07/22 08:08:36;;;;;;;20.52;3.50;;;16.90;85.50;;;;;;5033885;28;20189;-87
2022/07/22 08:11:01;;;;;;;17.80;3.55;;;16.80;85.20;;;;;;5034414;28;20177;-87
2022/07/22 08:13:27;;;;;;;15.60;3.80;;;16.80;85.40;;;;;;5034541;28;20180;-87
2022/07/22 08:15:52;;;;;;;14.60;3.15;;;16.80;85.10;;;;;;5040442;28;20590;-87
2022/07/22 08:18:18;;;;;;;15.80;3.20;;;16.80;85.30;;;;;;5038687;28;20184;-87
2022/07/22 08:20:44;;;;;;;20.88;4.50;;;16.70;85.10;;;;;;5038550;28;20180;-88
2022/07/22 08:23:10;;;;;;;14.55;2.80;;;16.90;85.50;;;;;;5037235;28;20251;-87
2022/07/22 08:25:35;;;;;;;15.20;3.63;;;17.00;85.20;;;;;;5036048;28;20295;-87
2022/07/22 08:28:01;;;;;;;18.00;3.55;;;17.10;83.90;;;;;;5038205;28;20177;-87
2022/07/22 08:30:28;;;;;;;12.63;2.88;;;17.30;84.30;;;;;;5036535;28;20204;-89
2022/07/22 08:32:54;;;;;;;15.13;2.92;;;17.30;83.10;;;;;;5035827;28;20184;-87
2022/07/22 08:35:20;;;;;;;10.15;2.58;;;17.30;82.50;;;;;;5037590;28;20215;-87
2022/07/22 08:37:47;;;;;;;12.48;3.03;;;17.20;81.80;;;;;;5035476;28;20169;-87
2022/07/22 08:40:14;;;;;;;7.65;2.38;;;17.20;81.40;;;;;;5036621;28;20222;-87
2022/07/22 08:42:41;;;;;;;14.00;3.00;;;17.30;81.40;;;;;;5036709;28;20176;-87
2022/07/22 08:45:09;;;;;;;11.82;2.47;;;17.50;82.30;;;;;;5038810;28;20208;-87
2022/07/22 08:47:35;;;;;;;16.40;3.33;;;17.50;82.00;;;;;;5038585;28;20227;-87
2022/07/22 08:50:01;;;;;;;10.82;2.65;;;17.50;81.70;;;;;;5039039;28;20172;-87
2022/07/22 08:52:26;;;;;;;14.80;3.38;;;17.30;81.40;;;;;;5042217;28;20173;-87
2022/07/22 08:54:52;;;;;;;15.77;3.08;;;17.30;81.60;;;;;;5041066;28;20227;-88
2022/07/22 08:57:18;;;;;;;10.63;2.65;;;17.20;80.60;;;;;;5045770;28;20196;-87
2022/07/22 08:59:50;;;;;;;11.98;3.38;;;17.40;81.80;;;;;;5045213;28;20264;-87
2022/07/22 09:02:15;;;;;;;10.80;3.47;;;17.60;81.90;;;;;;5044052;28;20181;-87
2022/07/22 09:05:03;;;;;;;10.38;2.80;;;17.70;81.80;;;;;;5038806;28;20208;-87
2022/07/22 09:07:40;;;;;;;12.73;2.53;;;17.60;80.00;;;;;;5040326;28;20271;-87
2022/07/22 09:10:19;;;;;;;13.48;2.97;;;17.50;79.10;;;;;;5040593;28;20165;-88
2022/07/22 09:13:00;;;;;;;8.98;2.00;;;17.60;80.80;;;;;;5037907;28;20260;-88
2022/07/22 09:15:28;;;;;;;14.93;2.67;;;17.60;79.50;;;;;;5037888;28;20207;-88
2022/07/22 09:17:54;;;;;;;12.35;2.67;;;17.20;79.00;;;;;;5035833;28;20172;-87
2022/07/22 09:20:20;;;;;;;14.25;3.05;;;17.10;80.50;;;;;;5036987;28;20259;-88
2022/07/22 09:22:48;;;;;;;13.73;2.83;;;17.20;81.70;;;;;;5035475;28;20207;-87
2022/07/22 09:25:28;;;;;;;18.55;3.05;;;17.30;80.90;;;;;;5034344;28;20196;-88
2022/07/22 09:28:08;;;;;;;10.93;2.97;;;17.30;80.80;;;;;;5034729;28;20267;-88
2022/07/22 09:30:36;;;;;;;11.20;2.60;;;17.40;80.80;;;;;;5041918;28;20196;-87
2022/07/22 09:33:03;;;;;;;10.20;2.20;;;17.50;80.50;;;;;;5043154;28;20553;-88
2022/07/22 09:35:29;;;;;;;12.55;2.33;;;17.50;79.10;;;;;;5043736;28;20205;-88
2022/07/22 09:37:57;;;;;;;13.68;2.97;;;17.50;78.10;;;;;;5046187;28;20173;-88
2022/07/22 09:40:28;;;;;;;12.88;2.35;;;17.70;78.50;;;;;;5044503;28;20191;-88
2022/07/22 09:43:02;;;;;;;4.85;1.55;;;17.70;77.70;;;;;;5044470;28;20248;-86
2022/07/22 09:45:30;;;;;;;10.05;2.28;;;17.60;76.20;;;;;;5033496;28;20709;-86
2022/07/22 09:47:58;;;;;;;11.90;2.47;;;17.50;77.30;;;;;;5033588;28;20180;-86
2022/07/22 09:50:26;;;;;;;13.02;2.70;;;17.50;78.10;;;;;;5034589;28;20169;-87
2022/07/22 09:52:55;;;;;;;13.73;2.40;;;17.50;77.50;;;;;;5033301;28;20666;-86
2022/07/22 09:55:23;;;;;;;11.77;2.30;;;17.40;77.30;;;;;;5033370;28;20196;-86
2022/07/22 09:57:51;;;;;;;16.27;2.92;;;17.70;77.70;;;;;;5034678;28;20176;-86
2022/07/22 10:00:22;;;;;;;6.55;2.05;;;17.70;76.20;;;;;;5033420;28;20172;-87
2022/07/22 10:02:57;;;;;;;8.90;1.95;;;17.50;76.20;;;;;;5033969;28;20196;-87
2022/07/22 10:05:25;;;;;;;6.80;2.17;;;17.60;76.70;;;;;;5033306;28;20206;-87
2022/07/22 10:07:52;;;;;;;11.80;2.17;;;17.90;77.50;;;;;;5033391;28;20180;-86
2022/07/22 10:10:20;;;;;;;9.73;2.45;;;17.90;74.60;;;;;;5033272;28;20183;-87
2022/07/22 10:12:49;;;;;;;8.43;1.80;;;17.80;75.70;;;;;;5032966;28;20177;-87
2022/07/22 10:15:15;;;;;;;9.00;2.15;;;17.60;74.50;;;;;;5036333;28;20665;-87
2022/07/22 10:17:48;;;;;;;9.18;2.20;;;17.60;75.70;;;;;;5034439;28;20177;-87
2022/07/22 10:20:18;;;;;;;10.93;2.47;;;17.50;75.00;;;;;;5034324;28;20710;-87
2022/07/22 10:22:51;;;;;;;10.95;2.63;;;17.70;75.40;;;;;;5034492;28;20191;-88
2022/07/22 10:25:18;;;;;;;6.82;1.80;;;17.70;74.80;;;;;;5034778;28;20283;-88
2022/07/22 10:27:45;;;;;;;7.07;2.70;;;17.70;74.30;;;;;;5034376;28;20266;-88
2022/07/22 10:30:13;;;;;;;10.23;2.28;;;17.70;74.30;;;;;;5034309;28;20238;-88
2022/07/22 10:32:39;;;;;;;12.18;3.22;;;17.80;75.00;;;;;;5034071;28;20706;-88
2022/07/22 10:35:10;;;;;;;12.70;2.45;;;17.60;75.00;;;;;;5033866;28;20381;-88
2022/07/22 10:37:40;;;;;;;10.13;2.10;;;17.70;75.40;;;;;;5037214;28;20172;-88
2022/07/22 10:40:16;;;;;;;12.05;2.35;;;17.60;75.30;;;;;;5036588;28;20184;-90
2022/07/22 10:42:59;;;;;;;11.35;2.55;;;17.60;75.50;;;;;;5033295;28;20172;-89
2022/07/22 10:45:26;;;;;;;12.23;2.95;;;17.50;75.10;;;;;;5036551;28;20303;-90
2022/07/22 10:47:56;;;;;;;12.57;2.28;;;17.60;76.20;;;;;;5032382;28;20183;-90
2022/07/22 10:50:39;;;;;;;11.95;2.70;;;17.70;75.40;;;;;;5032793;28;20594;-90
2022/07/22 10:53:08;;;;;;;5.68;2.20;;;17.80;74.80;;;;;;5033530;28;20299;-89
2022/07/22 10:55:35;;;;;;;12.82;2.30;;;17.60;75.20;;;;;;5032534;28;20204;-90
2022/07/22 10:58:20;;;;;;;14.07;2.53;;;17.90;75.50;;;;;;5032457;28;20173;-90
2022/07/22 11:00:46;;;;;;;6.65;2.33;;;18.10;74.70;;;;;;5032955;28;20267;-90
2022/07/22 11:03:12;;;;;;;8.05;1.98;;;18.30;74.50;;;;;;5032265;28;20259;-90
2022/07/22 11:05:38;;;;;;;9.30;2.33;;;18.00;72.30;;;;;;5032516;28;20200;-89
2022/07/22 11:08:09;;;;;;;4.53;1.77;;;18.20;73.00;;;;;;5032527;28;20594;-90
2022/07/22 11:10:35;;;;;;;7.85;2.05;;;18.20;73.10;;;;;;5033023;28;20168;-90
2022/07/22 11:13:00;;;;;;;8.68;1.95;;;18.20;73.70;;;;;;5032206;28;20181;-90
2022/07/22 11:15:27;;;;;;;8.88;1.92;;;18.20;72.30;;;;;;5033278;28;20574;-90
2022/07/22 11:17:56;;;;;;;6.40;2.20;;;18.00;69.70;;;;;;5032130;28;20180;-90
2022/07/22 11:20:23;;;;;;;7.65;1.80;;;17.90;70.90;;;;;;5032109;28;20176;-90
2022/07/22 11:22:49;;;;;;;9.18;2.35;;;18.10;71.30;;;;;;5033331;28;20196;-91
2022/07/22 11:25:16;;;;;;;5.00;1.75;;;18.20;68.90;;;;;;5031925;28;20663;-89
2022/07/22 11:27:52;;;;;;;9.23;2.45;;;18.20;69.60;;;;;;5032891;28;20270;-91
2022/07/22 11:30:17;;;;;;;9.82;2.20;;;18.50;70.00;;;;;;5032109;28;20176;-90
2022/07/22 11:32:43;;;;;;;11.52;2.33;;;18.30;68.60;;;;;;5032897;28;20530;-90
2022/07/22 11:35:12;;;;;;;9.32;1.73;;;18.40;68.00;;;;;;5031992;28;20672;-90
2022/07/22 11:37:38;;;;;;;6.18;1.45;;;18.50;68.50;;;;;;5033510;28;20252;-90
2022/07/22 11:40:06;;;;;;;13.82;2.20;;;18.40;68.60;;;;;;5032709;28;20638;-90
2022/07/22 11:42:32;;;;;;;11.38;2.30;;;18.60;69.10;;;;;;5032300;28;20184;-91
2022/07/22 11:44:58;;;;;;;5.47;1.63;;;18.60;69.80;;;;;;5033147;28;20212;-90
2022/07/22 11:47:24;;;;;;;6.72;2.28;;;18.30;68.00;;;;;;5032440;28;20187;-90
2022/07/22 11:49:49;;;;;;;4.93;1.90;;;18.40;68.70;;;;;;5033536;28;20176;-91
2022/07/22 11:52:15;;;;;;;6.55;2.45;;;18.60;68.70;;;;;;5036568;28;20235;-90
2022/07/22 11:54:42;;;;;;;5.05;1.83;;;18.70;67.80;;;;;;5035985;28;20200;-90
2022/07/22 11:57:08;;;;;;;5.90;1.83;;;18.70;67.80;;;;;;5035790;28;20181;-90
2022/07/22 11:59:34;;;;;;;10.77;1.73;;;19.00;69.20;;;;;;5036969;28;20172;-90
2022/07/22 12:02:01;;;;;;;7.43;2.22;;;18.90;67.60;;;;;;5035580;28;20172;-90
2022/07/22 12:04:30;;;;;;;8.07;1.98;;;19.20;68.10;;;;;;5035949;28;20211;-91
2022/07/22 12:06:58;;;;;;;8.25;1.92;;;19.10;66.70;;;;;;5035546;28;20172;-91
2022/07/22 12:09:26;;;;;;;6.75;2.08;;;18.80;66.80;;;;;;5035610;28;20263;-91
2022/07/22 12:11:55;;;;;;;5.25;1.90;;;19.00;66.80;;;;;;5035445;28;20173;-91
2022/07/22 12:14:23;;;;;;;10.00;1.92;;;19.00;68.40;;;;;;5035153;28;20197;-90
2022/07/22 12:17:10;;;;;;;7.00;2.10;;;19.10;66.80;;;;;;5035357;28;20173;-90
2022/07/22 12:19:38;;;;;;;7.88;1.83;;;19.20;67.90;;;;;;5035325;28;20168;-91
2022/07/22 12:22:10;;;;;;;11.02;2.42;;;19.50;68.50;;;;;;5035291;28;20635;-90
2022/07/22 12:24:43;;;;;;;7.72;2.22;;;19.40;69.60;;;;;;5035724;28;20610;-90
2022/07/22 12:27:15;;;;;;;12.68;2.10;;;19.40;70.10;;;;;;5035134;28;20173;-90
2022/07/22 12:29:43;;;;;;;10.13;2.00;;;19.60;68.80;;;;;;5035385;28;20263;-91
2022/07/22 12:32:28;;;;;;;6.65;1.88;;;19.50;68.50;;;;;;5034929;28;20650;-90
2022/07/22 12:34:53;;;;;;;4.28;1.75;;;19.50;68.10;;;;;;5035333;28;20208;-90
2022/07/22 12:37:24;;;;;;;8.25;2.08;;;19.20;69.50;;;;;;5034831;28;20179;-90